Time;durP1;ratioP1;P1;durP2;ratioP2;P2;SDS_P1;SDS_P2;PMS_P1;PMS_P2;Temp;Humidity;BMP_temperature;BMP_pressure;BME280_temperature;BME280_humidity;BME280_pressure;Samples;Min_cycle;Max_cycle;Signal;HPM_P1;HPM_P2
2022/03/30 00:01:52;;;;;;;;;16.33;13.00;;;;;23.45;57.84;100189.41;5037254;28;47339;-67
2022/03/30 00:04:17;;;;;;;;;19.33;13.00;;;;;23.44;58.42;100188.53;5037068;28;46371;-67
2022/03/30 00:06:43;;;;;;;;;16.67;12.67;;;;;23.43;58.24;100186.75;5036211;28;58179;-67
2022/03/30 00:09:08;;;;;;;;;18.67;12.00;;;;;23.43;58.13;100178.69;5037472;28;45453;-67
2022/03/30 00:11:34;;;;;;;;;15.33;12.33;;;;;23.43;58.29;100183.19;5036947;28;45192;-67
2022/03/30 00:13:59;;;;;;;;;16.67;13.00;;;;;23.43;58.17;100184.06;5036787;28;45770;-67
2022/03/30 00:16:25;;;;;;;;;14.67;10.33;;;;;23.43;58.34;100181.38;5037144;28;45338;-67
2022/03/30 00:18:50;;;;;;;;;17.00;13.33;;;;;23.42;58.37;100181.47;5035273;28;45894;-67
2022/03/30 00:21:16;;;;;;;;;16.00;11.33;;;;;23.41;58.12;100177.91;5037472;28;45195;-68
2022/03/30 00:23:41;;;;;;;;;19.33;14.00;;;;;23.40;58.30;100170.78;5036760;28;46006;-67
2022/03/30 00:26:07;;;;;;;;;18.00;12.00;;;;;23.41;58.37;100167.13;5036529;28;59385;-67
2022/03/30 00:28:32;;;;;;;;;16.67;13.00;;;;;23.39;58.14;100166.34;5037041;28;45187;-67
2022/03/30 00:30:58;;;;;;;;;15.00;13.67;;;;;23.41;58.30;100172.50;5036358;28;53885;-67
2022/03/30 00:33:24;;;;;;;;;13.00;13.00;;;;;23.41;58.20;100172.50;5036316;28;46667;-67
2022/03/30 00:35:49;;;;;;;;;13.33;12.00;;;;;23.38;58.38;100169.09;5018448;28;45518;-67
2022/03/30 00:38:15;;;;;;;;;18.33;12.67;;;;;23.40;58.26;100167.22;5036516;28;45364;-68
2022/03/30 00:40:40;;;;;;;;;21.33;13.33;;;;;23.40;58.21;100161.81;5031762;28;45329;-67
2022/03/30 00:43:06;;;;;;;;;11.33;10.33;;;;;23.40;58.19;100162.69;5034236;28;47649;-67
2022/03/30 00:45:32;;;;;;;;;17.33;12.00;;;;;23.39;58.35;100160.97;5035818;28;45519;-67
2022/03/30 00:47:57;;;;;;;;;18.33;12.00;;;;;23.37;58.48;100149.38;5036694;28;45423;-67
2022/03/30 00:50:22;;;;;;;;;19.00;14.33;;;;;23.39;58.33;100155.56;5028924;28;50681;-67
2022/03/30 00:52:50;;;;;;;;;16.00;12.00;;;;;23.37;58.44;100149.38;5036472;28;47416;-67
2022/03/30 00:55:17;;;;;;;;;23.00;15.67;;;;;23.39;58.28;100152.00;5051566;28;45412;-67
2022/03/30 00:57:45;;;;;;;;;17.33;13.00;;;;;23.36;58.24;100146.75;5034922;28;45393;-67
2022/03/30 01:00:14;;;;;;;;;22.00;13.00;;;;;23.37;58.39;100146.69;5036025;28;45450;-67
2022/03/30 01:02:43;;;;;;;;;14.67;13.33;;;;;23.38;58.32;100147.53;5035701;28;47751;-67
2022/03/30 01:05:08;;;;;;;;;16.00;14.00;;;;;23.37;58.39;100141.28;5036410;28;45429;-67
2022/03/30 01:07:34;;;;;;;;;22.33;14.00;;;;;23.37;58.43;100135.03;5035759;28;45497;-67
2022/03/30 01:09:59;;;;;;;;;17.33;14.33;;;;;23.33;58.23;100128.06;5035934;28;48696;-67
2022/03/30 01:12:25;;;;;;;;;16.00;12.33;;;;;23.36;58.38;100126.09;5035457;28;49018;-68
2022/03/30 01:14:50;;;;;;;;;20.00;17.67;;;;;23.35;58.15;100110.88;5034959;28;45333;-67
2022/03/30 01:17:16;;;;;;;;;21.00;17.00;;;;;23.35;58.27;100110.00;5035746;28;53046;-67
2022/03/30 01:19:41;;;;;;;;;18.67;16.67;;;;;23.36;58.58;100109.91;5035899;28;48433;-67
2022/03/30 01:22:09;;;;;;;;;22.00;16.00;;;;;23.36;58.29;100104.53;5035518;28;49326;-67
2022/03/30 01:24:35;;;;;;;;;17.00;14.33;;;;;23.37;58.51;100108.97;5036049;28;45473;-67
2022/03/30 01:27:01;;;;;;;;;18.67;16.00;;;;;23.35;58.57;100093.84;5036028;28;45186;-67
2022/03/30 01:32:25;;;;;;;;;27.33;15.67;;;;;23.37;58.31;100102.69;5035730;28;45936;-67
2022/03/30 01:34:51;;;;;;;;;24.33;20.00;;;;;23.34;58.63;100092.97;5035471;28;45442;-67
2022/03/30 01:37:16;;;;;;;;;21.33;15.00;;;;;23.33;58.59;100087.66;5035573;28;45354;-67
2022/03/30 01:39:42;;;;;;;;;24.00;14.33;;;;;23.34;58.62;100082.19;5035336;28;56175;-67
2022/03/30 01:42:08;;;;;;;;;30.00;18.67;;;;;23.37;58.68;100091.91;5034939;28;59932;-67
2022/03/30 01:44:33;;;;;;;;;20.33;16.67;;;;;23.36;58.87;100079.41;5035711;28;45938;-67
2022/03/30 01:46:59;;;;;;;;;19.33;16.33;;;;;23.37;58.63;100079.31;5036174;28;45272;-67
2022/03/30 01:49:24;;;;;;;;;16.67;13.67;;;;;23.39;58.83;100087.34;5035185;28;45641;-67
2022/03/30 01:51:50;;;;;;;;;26.67;18.67;;;;;23.39;58.56;100084.66;5035310;28;47353;-67
2022/03/30 01:54:17;;;;;;;;;21.00;16.67;;;;;23.38;58.83;100075.66;5036003;28;45391;-67
2022/03/30 01:56:42;;;;;;;;;17.67;14.00;;;;;23.39;58.77;100073.88;5034125;28;45336;-68
2022/03/30 01:59:07;;;;;;;;;17.00;15.67;;;;;23.39;58.64;100082.81;5035806;28;45574;-67
2022/03/30 02:01:33;;;;;;;;;20.33;18.33;;;;;23.39;58.81;100074.75;5034307;28;62577;-67
2022/03/30 02:04:00;;;;;;;;;19.00;12.00;;;;;23.40;58.77;100072.91;5035259;28;58213;-67
2022/03/30 02:06:25;;;;;;;;;21.33;18.67;;;;;23.38;58.83;100056.81;5035662;28;45534;-67
2022/03/30 02:08:51;;;;;;;;;21.33;18.33;;;;;23.40;58.63;100059.44;5034572;28;45546;-67
2022/03/30 02:11:16;;;;;;;;;20.67;15.67;;;;;23.40;58.68;100060.31;5035120;28;56704;-67
2022/03/30 02:13:42;;;;;;;;;17.00;13.33;;;;;23.38;58.88;100056.81;5035059;28;45446;-67
2022/03/30 02:16:07;;;;;;;;;24.00;17.33;;;;;23.39;58.84;100055.88;5035652;28;45269;-67
2022/03/30 02:18:32;;;;;;;;;18.33;14.33;;;;;23.40;58.65;100060.31;5033771;28;45281;-67
2022/03/30 02:20:58;;;;;;;;;20.33;17.33;;;;;23.40;58.89;100048.66;5033807;28;46390;-67
2022/03/30 02:23:23;;;;;;;;;18.00;17.33;;;;;23.39;58.70;100050.50;5035003;28;45452;-67
2022/03/30 02:25:49;;;;;;;;;19.00;16.00;;;;;23.40;58.84;100044.16;5034824;28;50512;-67
2022/03/30 02:28:14;;;;;;;;;17.33;14.00;;;;;23.41;58.84;100047.69;5035218;28;53023;-67
2022/03/30 02:30:39;;;;;;;;;21.67;15.33;;;;;23.38;58.85;100040.63;5034789;28;60258;-67
2022/03/30 02:33:05;;;;;;;;;24.33;17.33;;;;;23.39;58.70;100039.72;5032672;28;48750;-67
2022/03/30 02:35:31;;;;;;;;;21.33;17.00;;;;;23.40;58.72;100035.19;5037232;28;45269;-68
2022/03/30 02:37:58;;;;;;;;;18.00;15.00;;;;;23.40;58.62;100045.97;5038636;28;45308;-67
2022/03/30 02:40:23;;;;;;;;;21.33;18.67;;;;;23.39;58.78;100041.53;5035629;28;46352;-67
2022/03/30 02:42:49;;;;;;;;;23.67;19.67;;;;;23.39;58.96;100031.63;5034286;28;45375;-67
2022/03/30 02:45:14;;;;;;;;;20.67;16.00;;;;;23.39;58.81;100030.75;5037797;28;55844;-67
2022/03/30 02:50:24;;;;;;;;;20.33;15.00;;;;;23.38;58.84;100037.09;5037784;28;45765;-67
2022/03/30 02:52:49;;;;;;;;;23.67;16.33;;;;;23.38;58.69;100032.56;5038610;28;45366;-67
2022/03/30 02:55:15;;;;;;;;;18.67;16.67;;;;;23.38;58.90;100032.56;5036544;28;58496;-67
2022/03/30 02:57:40;;;;;;;;;19.67;17.00;;;;;23.38;59.02;100024.47;5038458;28;45505;-68
2022/03/30 03:00:07;;;;;;;;;19.33;14.33;;;;;23.38;59.24;100021.78;5038121;28;47272;-67
2022/03/30 03:02:34;;;;;;;;;22.67;18.67;;;;;23.40;58.79;100030.66;5036584;28;45371;-67
2022/03/30 03:05:00;;;;;;;;;23.33;16.00;;;;;23.42;58.87;100023.38;5038612;28;45332;-67
2022/03/30 03:07:25;;;;;;;;;25.33;17.67;;;;;23.44;59.41;100017.91;5038150;28;45375;-67
2022/03/30 03:09:52;;;;;;;;;26.67;18.00;;;;;23.44;59.11;100013.38;5037352;28;65983;-67
2022/03/30 03:12:17;;;;;;;;;23.33;15.67;;;;;23.45;59.13;100019.66;5037862;28;45477;-67
2022/03/30 03:14:43;;;;;;;;;21.33;18.00;;;;;23.45;59.09;100025.91;5037768;28;45347;-67
2022/03/30 03:17:08;;;;;;;;;17.33;13.33;;;;;23.46;59.05;100016.00;5036335;28;53834;-67
2022/03/30 03:19:33;;;;;;;;;17.33;16.67;;;;;23.46;58.96;100011.47;5036654;28;61556;-67
2022/03/30 03:21:59;;;;;;;;;23.00;16.67;;;;;23.48;59.09;100014.06;5037380;28;59807;-67
2022/03/30 03:24:24;;;;;;;;;20.00;17.00;;;;;23.47;58.56;100007.81;5037330;28;55515;-67
2022/03/30 03:26:51;;;;;;;;;19.67;17.67;;;;;23.47;59.03;100012.34;5037681;28;45367;-67
2022/03/30 03:29:16;;;;;;;;;21.33;15.67;;;;;23.47;58.97;100007.81;5037525;28;47884;-67
2022/03/30 03:31:42;;;;;;;;;22.67;15.67;;;;;23.44;58.91;99999.91;5037544;28;45285;-67
2022/03/30 03:34:08;;;;;;;;;16.33;14.67;;;;;23.45;59.05;100004.34;5037014;28;53884;-67
2022/03/30 03:36:34;;;;;;;;;18.33;13.00;;;;;23.45;58.78;100006.16;5038191;28;45930;-67
2022/03/30 03:39:00;;;;;;;;;14.00;12.33;;;;;23.45;58.92;100008.88;5037133;28;46858;-67
2022/03/30 03:41:25;;;;;;;;;20.33;18.00;;;;;23.44;58.98;99999.06;5036525;28;45367;-67
2022/03/30 03:43:51;;;;;;;;;22.00;15.67;;;;;23.45;58.70;100001.66;5036277;28;45404;-67
2022/03/30 03:46:16;;;;;;;;;34.67;17.00;;;;;23.45;58.77;99998.09;5037598;28;45477;-67
2022/03/30 03:48:42;;;;;;;;;17.67;17.33;;;;;23.44;58.74;99993.66;5032239;28;62312;-67
2022/03/30 03:51:07;;;;;;;;;18.33;15.00;;;;;23.43;59.26;99992.75;5035962;28;54528;-67
2022/03/30 03:53:34;;;;;;;;;16.33;15.33;;;;;23.43;59.27;99998.16;5037494;28;45394;-67
2022/03/30 03:56:01;;;;;;;;;16.67;15.00;;;;;23.42;58.92;99995.56;5036842;28;45527;-68
2022/03/30 03:58:27;;;;;;;;;22.33;15.00;;;;;23.43;59.28;99997.28;5037010;28;47639;-67
2022/03/30 04:00:52;;;;;;;;;19.00;16.33;;;;;23.42;58.87;99992.84;5036646;28;59168;-67
2022/03/30 04:03:17;;;;;;;;;18.33;14.33;;;;;23.41;59.05;99992.00;5036427;28;57436;-68
2022/03/30 04:05:43;;;;;;;;;19.00;14.00;;;;;23.41;59.24;99997.38;5037227;28;45347;-67
2022/03/30 04:08:10;;;;;;;;;15.00;13.00;;;;;23.40;58.84;99989.38;5036687;28;46358;-67
2022/03/30 04:10:36;;;;;;;;;20.33;17.00;;;;;23.41;59.39;99988.44;5037110;28;45458;-67
2022/03/30 04:13:02;;;;;;;;;24.33;15.67;;;;;23.38;58.76;99991.28;5037009;28;45461;-68
2022/03/30 04:15:27;;;;;;;;;15.00;13.33;;;;;23.39;59.23;99987.66;5037017;28;45565;-67
2022/03/30 04:17:54;;;;;;;;;16.67;14.33;;;;;23.39;58.97;99984.97;5030222;28;64765;-67
2022/03/30 04:20:19;;;;;;;;;19.00;14.33;;;;;23.36;59.00;99980.59;5036597;28;45482;-67
2022/03/30 04:22:45;;;;;;;;;17.33;14.33;;;;;23.38;58.99;99984.06;5037338;28;45414;-67
2022/03/30 04:25:10;;;;;;;;;19.00;14.00;;;;;23.37;59.13;99979.63;5037063;28;45290;-67
2022/03/30 04:27:35;;;;;;;;;32.33;17.33;;;;;23.35;58.93;99976.16;5036381;28;46268;-67
2022/03/30 04:30:01;;;;;;;;;14.67;14.67;;;;;23.37;59.26;99979.63;5029237;28;55025;-68
2022/03/30 04:32:26;;;;;;;;;19.00;13.67;;;;;23.38;59.14;99972.41;5028976;28;45950;-67
2022/03/30 04:34:52;;;;;;;;;14.67;14.00;;;;;23.38;59.31;99967.91;5033397;28;55007;-68
2022/03/30 04:37:17;;;;;;;;;18.00;13.67;;;;;23.38;59.09;99977.81;5034545;28;46539;-64
2022/03/30 04:39:42;;;;;;;;;21.33;16.00;;;;;23.38;59.23;99972.41;5035290;28;56431;-66
2022/03/30 04:42:08;;;;;;;;;17.67;15.33;;;;;23.37;59.50;99976.06;5034721;28;54689;-66
2022/03/30 04:44:33;;;;;;;;;19.67;14.67;;;;;23.39;58.92;99969.66;5035241;28;48833;-64
2022/03/30 04:46:59;;;;;;;;;25.00;17.00;;;;;23.39;59.06;99961.59;5034637;28;59126;-66
2022/03/30 04:49:24;;;;;;;;;22.00;17.33;;;;;23.40;59.15;99959.75;5036678;28;45523;-67
2022/03/30 04:51:49;;;;;;;;;23.00;21.00;;;;;23.40;59.01;99967.84;5034964;28;45236;-66
2022/03/30 04:54:16;;;;;;;;;20.00;13.67;;;;;23.38;59.58;99956.25;5036794;28;45403;-66
2022/03/30 04:56:42;;;;;;;;;21.00;17.00;;;;;23.40;59.45;99957.94;5035129;28;45533;-65
2022/03/30 04:59:07;;;;;;;;;24.33;17.67;;;;;23.41;59.64;99948.00;5035870;28;45392;-65
2022/03/30 05:01:32;;;;;;;;;20.67;15.33;;;;;23.42;59.42;99956.00;5036219;28;56355;-66
2022/03/30 05:03:58;;;;;;;;;19.33;14.33;;;;;23.41;59.40;99954.28;5035740;28;54599;-67
2022/03/30 05:06:23;;;;;;;;;19.33;13.67;;;;;23.42;59.64;99953.31;5034659;28;45815;-66
2022/03/30 05:08:49;;;;;;;;;20.33;15.67;;;;;23.41;59.46;99951.56;5035089;28;45431;-66
2022/03/30 05:11:14;;;;;;;;;15.00;13.00;;;;;23.42;59.49;99958.69;5035625;28;54852;-66
2022/03/30 05:13:39;;;;;;;;;18.67;16.67;;;;;23.42;59.36;99950.63;5035972;28;45605;-66
2022/03/30 05:16:05;;;;;;;;;15.67;15.00;;;;;23.41;59.58;99948.88;5034856;28;61975;-66
2022/03/30 05:18:30;;;;;;;;;19.00;14.33;;;;;23.42;59.58;99955.13;5034219;28;54962;-66
2022/03/30 05:20:55;;;;;;;;;21.67;15.00;;;;;23.43;59.75;99954.19;5031615;28;57041;-66
2022/03/30 05:23:21;;;;;;;;;16.00;14.33;;;;;23.42;59.73;99947.91;5036170;28;45466;-65
2022/03/30 05:25:46;;;;;;;;;19.33;16.67;;;;;23.42;59.45;99950.63;5035428;28;59909;-66
2022/03/30 05:28:12;;;;;;;;;26.67;17.00;;;;;23.44;59.47;99954.13;5034448;28;45474;-66
2022/03/30 05:30:37;;;;;;;;;20.67;17.67;;;;;23.44;59.51;99953.25;5030490;28;45326;-67
2022/03/30 05:33:03;;;;;;;;;53.25;40.25;;;;;23.43;59.79;99951.47;5034902;28;54648;-68
2022/03/30 05:35:28;;;;;;;;;53.50;41.50;;;;;23.26;59.20;99957.81;5034585;28;46626;-67
2022/03/30 05:37:53;;;;;;;;;63.00;42.50;;;;;22.97;59.08;99951.34;5033996;28;45392;-67
2022/03/30 05:40:19;;;;;;;;;62.25;45.50;;;;;22.69;59.29;99957.28;5035296;28;56395;-68
2022/03/30 05:42:44;;;;;;;;;53.25;42.25;;;;;22.38;59.55;99964.28;5035235;28;46486;-67
2022/03/30 05:45:10;;;;;;;;;58.75;43.75;;;;;22.09;60.04;99970.22;5030022;28;47666;-68
2022/03/30 05:47:35;;;;;;;;;58.75;42.50;;;;;21.81;59.85;99960.00;5029077;28;60797;-68
2022/03/30 05:50:01;;;;;;;;;57.25;44.75;;;;;21.51;60.47;99965.03;5026265;28;45583;-66
2022/03/30 05:52:26;;;;;;;;;60.50;46.75;;;;;21.26;61.47;99965.31;5025840;28;45641;-67
2022/03/30 05:54:52;;;;;;;;;57.75;44.75;;;;;21.00;61.68;99963.81;5033427;28;46339;-65
2022/03/30 05:57:21;;;;;;;;;56.75;43.75;;;;;20.73;62.70;99966.81;5028157;28;54165;-66
2022/03/30 05:59:46;;;;;;;;;62.50;47.25;;;;;20.54;63.30;99968.56;5025267;28;45491;-67
2022/03/30 06:02:12;;;;;;;;;62.25;46.50;;;;;20.36;63.58;99979.13;5039863;28;46347;-64
2022/03/30 06:04:38;;;;;;;;;55.50;45.25;;;;;20.22;63.91;99980.63;5030022;28;45838;-65
2022/03/30 06:07:04;;;;;;;;;47.75;40.00;;;;;20.10;64.43;99973.97;5025861;28;45823;-67
2022/03/30 06:09:33;;;;;;;;;62.00;45.00;;;;;19.97;65.16;99978.09;5025381;28;45562;-65
2022/03/30 06:11:59;;;;;;;;;58.50;46.00;;;;;19.83;65.68;99973.31;5025399;28;45396;-66
2022/03/30 06:14:24;;;;;;;;;62.00;47.75;;;;;19.75;66.16;99984.31;5027127;28;45836;-66
2022/03/30 06:16:50;;;;;;;;;67.75;46.75;;;;;19.67;66.90;99990.94;5023955;28;45434;-67
2022/03/30 06:19:15;;;;;;;;;61.50;49.00;;;;;19.56;67.60;99991.34;5029973;28;52899;-66
2022/03/30 06:21:42;;;;;;;;;68.75;50.50;;;;;19.46;67.30;99985.47;5037458;28;47964;-65
2022/03/30 06:24:11;;;;;;;;;67.25;51.75;;;;;19.35;68.18;99983.19;5037235;28;47899;-66
2022/03/30 06:26:40;;;;;;;;;60.25;48.00;;;;;19.27;68.69;99981.75;5037769;28;45283;-66
2022/03/30 06:29:05;;;;;;;;;58.75;45.00;;;;;19.21;71.92;99984.66;5033918;28;45403;-68
2022/03/30 06:31:31;;;;;;;;;55.50;40.50;;;;;19.32;73.25;99985.97;5035320;28;45502;-69
2022/03/30 06:33:57;;;;;;;;;51.25;40.25;;;;;19.50;73.45;99984.41;5028768;28;45579;-71
2022/03/30 06:36:22;;;;;;;;;49.50;37.25;;;;;19.70;73.34;99986.31;5036518;28;45576;-70
2022/03/30 06:38:47;;;;;;;;;49.50;38.75;;;;;19.88;73.00;99987.41;5035713;28;50738;-71
2022/03/30 06:41:14;;;;;;;;;37.00;31.00;;;;;20.08;72.66;99989.22;5026707;28;47139;-73
2022/03/30 06:43:46;;;;;;;;;45.00;31.00;;;;;20.24;72.71;99985.00;5037777;28;45786;-70
2022/03/30 06:46:12;;;;;;;;;38.00;32.50;;;;;20.41;72.41;99986.97;5036623;28;45466;-69
2022/03/30 06:48:37;;;;;;;;;38.75;33.50;;;;;20.55;71.94;99987.25;5020344;28;45488;-72
2022/03/30 06:51:03;;;;;;;;;34.50;28.00;;;;;20.66;71.69;99987.66;5026498;28;54116;-73
2022/03/30 06:53:29;;;;;;;;;34.50;30.75;;;;;20.81;71.16;99996.84;5035078;28;47650;-73
2022/03/30 06:55:54;;;;;;;;;31.67;27.33;;;;;20.92;71.29;99991.84;5034021;28;45403;-70
2022/03/30 06:58:22;;;;;;;;;34.33;25.33;;;;;21.03;70.71;99993.19;5037732;28;51093;-70
2022/03/30 07:00:47;;;;;;;;;36.33;26.00;;;;;21.13;70.20;99994.50;5038412;28;45358;-71
2022/03/30 07:03:13;;;;;;;;;28.67;22.00;;;;;21.22;70.41;99988.72;5037153;28;46579;-69
2022/03/30 07:05:38;;;;;;;;;30.67;22.33;;;;;21.31;69.94;99991.03;5036898;28;49670;-71
2022/03/30 07:10:48;;;;;;;;;33.00;22.67;;;;;21.47;68.84;99993.88;5036394;28;45622;-73
2022/03/30 07:13:13;;;;;;;;;29.67;24.67;;;;;21.50;69.25;99987.47;5036690;28;46155;-71
2022/03/30 07:15:38;;;;;;;;;33.67;22.67;;;;;21.59;69.34;99992.41;5032882;28;60281;-68
2022/03/30 07:18:06;;;;;;;;;25.67;18.67;;;;;21.64;69.03;99999.31;5034946;28;45289;-67
2022/03/30 07:20:31;;;;;;;;;25.67;19.00;;;;;21.70;68.90;99995.44;5037058;28;45424;-68
2022/03/30 07:22:58;;;;;;;;;22.00;19.67;;;;;21.75;69.21;99997.91;5052880;28;46471;-68
2022/03/30 07:25:23;;;;;;;;;48.75;38.25;;;;;21.61;66.56;99995.88;5028764;28;45382;-67
2022/03/30 07:27:53;;;;;;;;;40.25;31.75;;;;;21.26;66.50;99984.97;5037642;28;47608;-66
2022/03/30 07:30:19;;;;;;;;;51.50;42.75;;;;;20.86;66.33;99991.28;5033544;28;45510;-66
2022/03/30 07:32:45;;;;;;;;;54.00;41.00;;;;;20.45;67.14;99993.03;5037536;28;47199;-68
2022/03/30 07:35:12;;;;;;;;;59.75;46.00;;;;;20.02;70.69;99982.31;5035951;28;45430;-69
2022/03/30 07:37:38;;;;;;;;;54.50;42.25;;;;;19.84;72.37;99999.16;5034930;28;45354;-67
2022/03/30 07:40:05;;;;;;;;;57.00;42.25;;;;;19.67;71.84;99993.63;5036947;28;45418;-66
2022/03/30 07:42:30;;;;;;;;;48.25;38.25;;;;;19.46;71.80;99992.63;5169546;22;47062;-66
2022/03/30 07:44:56;;;;;;;;;54.00;42.75;;;;;19.27;75.27;99989.78;5019875;28;45363;-69
2022/03/30 07:47:21;;;;;;;;;54.25;42.75;;;;;19.07;76.73;99995.91;5037807;28;45316;-66
2022/03/30 07:49:49;;;;;;;;;45.25;35.50;;;;;19.02;82.61;99993.38;5020170;28;45485;-69
2022/03/30 07:52:14;;;;;;;;;47.75;33.50;;;;;19.24;84.34;99993.44;5033795;28;47134;-68
2022/03/30 07:54:41;;;;;;;;;40.00;29.25;;;;;19.52;85.13;99989.69;5033063;28;45419;-68
2022/03/30 07:57:06;;;;;;;;;33.00;27.33;;;;;19.78;85.59;99992.25;5034545;28;45388;-69
2022/03/30 07:59:32;;;;;;;;;28.67;26.67;;;;;20.05;85.76;99986.69;5036670;28;45538;-68
2022/03/30 08:01:58;;;;;;;;;31.00;26.33;;;;;20.29;84.85;99988.34;5037320;28;56600;-69
2022/03/30 08:04:24;;;;;;;;;33.00;26.67;;;;;20.51;84.66;99991.03;5036317;28;45415;-71
2022/03/30 08:06:50;;;;;;;;;32.00;26.67;;;;;20.71;84.24;99987.44;5031864;28;45324;-71
2022/03/30 08:09:15;;;;;;;;;24.33;21.33;;;;;20.86;84.15;99986.78;5036276;28;45273;-68
2022/03/30 08:11:40;;;;;;;;;31.67;26.67;;;;;21.04;84.31;99984.19;5035081;28;55945;-71
2022/03/30 08:14:06;;;;;;;;;30.33;26.67;;;;;21.18;84.10;99987.13;5033988;28;45486;-70
2022/03/30 08:16:34;;;;;;;;;28.33;23.00;;;;;21.28;83.63;99982.19;5034297;28;45837;-70
2022/03/30 08:19:00;;;;;;;;;26.33;21.00;;;;;21.41;83.13;99988.75;5028265;28;45651;-68
2022/03/30 08:24:09;;;;;;;;;32.00;22.33;;;;;21.60;83.46;99984.25;5034811;28;45670;-71
2022/03/30 08:26:34;;;;;;;;;28.33;21.33;;;;;21.69;83.46;99982.97;5034316;28;54061;-73
2022/03/30 08:29:00;;;;;;;;;30.00;19.33;;;;;21.73;83.05;99983.66;5034977;28;45811;-71
2022/03/30 08:31:25;;;;;;;;;28.00;22.00;;;;;21.84;83.06;99992.97;5031771;28;55781;-70
2022/03/30 08:33:50;;;;;;;;;27.67;22.67;;;;;21.90;83.15;99981.03;5035513;28;45935;-68
2022/03/30 08:36:16;;;;;;;;;27.00;19.33;;;;;21.95;82.84;99982.56;5026575;28;45681;-72
2022/03/30 08:38:42;;;;;;;;;26.67;20.67;;;;;22.00;82.74;99979.66;5035329;28;45297;-71
2022/03/30 08:41:07;;;;;;;;;27.00;19.67;;;;;22.07;82.98;99980.19;5035506;28;46405;-68
2022/03/30 08:43:33;;;;;;;;;29.00;23.33;;;;;22.08;82.58;99980.13;5048050;28;45496;-70
2022/03/30 08:46:00;;;;;;;;;27.00;20.00;;;;;22.16;82.65;99985.16;5019953;28;45903;-69
2022/03/30 08:48:26;;;;;;;;;25.33;19.67;;;;;22.20;82.86;99981.34;5052226;28;45472;-72
2022/03/30 08:50:51;;;;;;;;;30.33;21.33;;;;;22.22;82.86;99979.47;5036672;28;45745;-72
2022/03/30 08:53:18;;;;;;;;;25.33;23.00;;;;;22.27;82.62;99985.50;5025490;28;55171;-70
2022/03/30 08:55:44;;;;;;;;;29.33;24.67;;;;;22.27;82.60;99971.19;5053660;28;45327;-69
2022/03/30 08:58:09;;;;;;;;;31.33;22.00;;;;;22.32;82.42;99980.75;5038903;28;45626;-73
2022/03/30 09:00:35;;;;;;;;;25.00;20.00;;;;;22.37;82.62;99989.44;5030217;28;46167;-69
2022/03/30 09:03:01;;;;;;;;;27.67;25.00;;;;;22.38;82.52;99987.63;5033407;28;45452;-70
2022/03/30 09:05:28;;;;;;;;;30.00;24.00;;;;;22.39;82.55;99990.22;5020606;28;45390;-72
2022/03/30 09:08:12;;;;;;;;;28.33;24.00;;;;;22.41;82.33;99982.94;5047954;28;45288;-68
2022/03/30 09:10:39;;;;;;;;;30.33;25.00;;;;;22.43;82.25;99982.88;5055645;28;45902;-68
2022/03/30 09:13:05;;;;;;;;;29.33;21.33;;;;;22.42;82.22;99982.00;5014395;28;45472;-68
2022/03/30 09:15:31;;;;;;;;;28.67;23.00;;;;;22.46;82.60;99980.88;5054890;28;45411;-70
2022/03/30 09:17:58;;;;;;;;;27.67;22.67;;;;;22.45;82.11;99978.28;5032982;28;45262;-69
2022/03/30 09:20:23;;;;;;;;;32.33;23.67;;;;;22.48;82.02;99983.53;5033276;28;46999;-70
2022/03/30 09:22:50;;;;;;;;;31.67;25.33;;;;;22.48;82.13;99976.31;5055127;28;45749;-70
2022/03/30 09:25:16;;;;;;;;;32.67;25.00;;;;;22.51;82.28;99990.56;5015306;28;45564;-69
2022/03/30 09:27:42;;;;;;;;;24.33;21.00;;;;;22.53;82.27;99991.31;5056201;28;45304;-70
2022/03/30 09:30:14;;;;;;;;;34.67;24.00;;;;;22.54;82.58;99987.72;5038110;28;45729;-68
2022/03/30 09:32:41;;;;;;;;;30.67;23.33;;;;;22.51;82.13;99977.97;5038321;28;45489;-68
2022/03/30 09:35:28;;;;;;;;;35.00;23.33;;;;;22.54;82.26;99983.19;5019926;28;45309;-67
2022/03/30 09:38:02;;;;;;;;;26.00;23.67;;;;;22.56;82.37;99991.19;5019904;28;45437;-69
2022/03/30 09:40:46;;;;;;;;;28.00;23.33;;;;;22.57;82.59;99988.41;5053348;28;45811;-71
2022/03/30 09:43:15;;;;;;;;;27.67;23.33;;;;;22.58;82.41;99983.88;5052824;28;45493;-69
2022/03/30 09:45:41;;;;;;;;;28.00;25.00;;;;;22.59;82.97;99977.59;5025605;28;45270;-68
2022/03/30 09:48:14;;;;;;;;;30.00;24.00;;;;;22.60;82.83;99985.56;5055945;28;45336;-71
2022/03/30 09:50:53;;;;;;;;;31.33;23.00;;;;;22.60;82.96;99974.81;5054186;28;45672;-68
2022/03/30 09:53:20;;;;;;;;;30.67;24.67;;;;;22.63;82.96;99979.13;5016471;28;45625;-68
2022/03/30 09:55:55;;;;;;;;;31.00;26.00;;;;;22.63;82.53;99974.63;5054976;28;45397;-68
2022/03/30 09:58:21;;;;;;;;;30.00;26.67;;;;;22.61;82.74;99968.47;5055341;28;45486;-69
2022/03/30 10:01:05;;;;;;;;;33.33;24.33;;;;;22.65;82.68;99969.19;5035626;28;47698;-68
2022/03/30 10:03:37;;;;;;;;;30.33;23.33;;;;;22.62;82.53;99962.13;5029775;28;45487;-68
2022/03/30 10:06:03;;;;;;;;;35.67;25.33;;;;;22.67;82.50;99964.56;5051862;28;45509;-68
2022/03/30 10:08:29;;;;;;;;;34.33;24.33;;;;;22.68;82.71;99969.88;5037914;28;45566;-68
2022/03/30 10:10:54;;;;;;;;;27.33;24.67;;;;;22.66;82.47;99965.53;5054626;28;46318;-72
2022/03/30 10:13:20;;;;;;;;;30.67;26.67;;;;;22.69;82.67;99965.34;5033052;28;45511;-70
2022/03/30 10:15:45;;;;;;;;;31.67;23.33;;;;;22.71;82.66;99963.47;5034248;28;51708;-70
2022/03/30 10:18:10;;;;;;;;;28.00;23.33;;;;;22.71;82.77;99964.34;5036524;28;45505;-70
2022/03/30 10:20:36;;;;;;;;;27.33;23.00;;;;;22.72;82.34;99960.69;5053270;28;59923;-68
2022/03/30 10:23:20;;;;;;;;;30.33;21.67;;;;;22.72;82.23;99962.50;5054942;28;45362;-68
2022/03/30 10:26:06;;;;;;;;;30.00;23.67;;;;;22.71;82.43;99956.25;5055563;28;45465;-70
2022/03/30 10:28:40;;;;;;;;;33.67;25.67;;;;;22.72;82.52;99965.22;5016308;28;45402;-67
2022/03/30 10:31:06;;;;;;;;;28.33;22.67;;;;;22.70;82.30;99959.91;5048820;28;46383;-68
2022/03/30 10:33:33;;;;;;;;;39.33;27.00;;;;;22.72;82.92;99955.31;5055007;28;45357;-67
2022/03/30 10:35:59;;;;;;;;;32.00;26.67;;;;;22.74;83.04;99960.59;5051590;28;45301;-67
2022/03/30 10:38:24;;;;;;;;;32.00;25.67;;;;;22.74;82.73;99953.44;5053700;28;45649;-67
2022/03/30 10:41:05;;;;;;;;;27.33;22.00;;;;;22.75;82.85;99954.28;5037180;28;45591;-69
2022/03/30 10:43:30;;;;;;;;;32.67;23.67;;;;;22.76;82.37;99947.94;5037754;28;45460;-69
2022/03/30 10:46:00;;;;;;;;;22.00;21.33;;;;;22.77;82.57;99951.50;5044701;28;45319;-66
2022/03/30 10:48:28;;;;;;;;;32.33;22.67;;;;;22.78;82.54;99945.16;5057648;28;45272;-66
2022/03/30 10:51:13;;;;;;;;;27.33;21.33;;;;;22.74;82.81;99937.28;5045017;28;45820;-70
2022/03/30 10:53:47;;;;;;;;;29.33;24.67;;;;;22.75;82.82;99927.38;5032723;28;45593;-68
2022/03/30 10:56:15;;;;;;;;;24.67;20.33;;;;;22.79;82.90;99931.63;5056513;28;47164;-69
2022/03/30 10:58:49;;;;;;;;;29.67;24.67;;;;;22.79;82.48;99928.94;5058488;28;45362;-67
2022/03/30 11:01:27;;;;;;;;;28.00;19.67;;;;;22.80;82.81;99930.69;5057662;28;45775;-66
2022/03/30 11:03:57;;;;;;;;;36.67;23.00;;;;;22.80;82.48;99919.03;5057678;28;45564;-67
2022/03/30 11:06:22;;;;;;;;;28.67;22.00;;;;;22.79;82.49;99917.28;5058218;28;45355;-67
2022/03/30 11:08:55;;;;;;;;;27.33;25.33;;;;;22.81;82.73;99918.97;5054073;28;46620;-70
2022/03/30 11:11:34;;;;;;;;;31.00;24.00;;;;;22.83;82.77;99919.75;5052905;28;46539;-66
2022/03/30 11:14:28;;;;;;;;;26.67;25.00;;;;;22.84;83.09;99912.53;5039539;28;46828;-66
2022/03/30 11:16:53;;;;;;;;;27.33;23.67;;;;;22.82;82.86;99909.06;5050870;28;45225;-68
2022/03/30 11:19:19;;;;;;;;;33.33;23.67;;;;;22.84;83.06;99912.53;5056296;28;45346;-66
2022/03/30 11:22:07;;;;;;;;;27.00;23.33;;;;;22.84;82.92;99905.31;5056845;28;46479;-66
2022/03/30 11:24:32;;;;;;;;;33.67;24.33;;;;;22.85;83.07;99909.78;5048052;28;45478;-66